Time;durP1;ratioP1;P1;durP2;ratioP2;P2;SDS_P1;SDS_P2;PMS_P1;PMS_P2;Temp;Humidity;BMP_temperature;BMP_pressure;BME280_temperature;BME280_humidity;BME280_pressure;Samples;Min_cycle;Max_cycle;Signal;HPM_P1;HPM_P2
2022/07/03 00:04:44;;;;;;;1.50;1.13;;;22.60;61.30;;;;;;10371418;28;20029;-56
2022/07/03 00:09:45;;;;;;;1.15;0.88;;;22.60;61.40;;;;;;10353198;28;20044;-55
2022/07/03 00:14:46;;;;;;;1.67;0.82;;;22.50;61.30;;;;;;10370318;28;20038;-55
2022/07/03 00:19:47;;;;;;;1.58;1.00;;;22.60;61.30;;;;;;10370358;28;20432;-56
2022/07/03 00:24:58;;;;;;;1.38;1.10;;;22.50;61.30;;;;;;10369185;28;20075;-56
2022/07/03 00:30:03;;;;;;;1.90;1.55;;;22.50;61.30;;;;;;10384057;28;20034;-55
2022/07/03 00:35:04;;;;;;;1.10;1.00;;;22.50;61.30;;;;;;10381383;28;20121;-56
2022/07/03 00:40:06;;;;;;;2.22;1.15;;;22.50;61.20;;;;;;10373704;28;20041;-54
2022/07/03 00:45:08;;;;;;;0.93;0.80;;;22.50;61.20;;;;;;10402914;28;20044;-54
2022/07/03 00:50:09;;;;;;;1.20;1.10;;;22.50;61.20;;;;;;10417368;28;20140;-56
2022/07/03 00:55:16;;;;;;;2.08;1.45;;;22.50;61.20;;;;;;10382554;28;20032;-56
2022/07/03 01:00:17;;;;;;;1.58;1.10;;;22.50;61.20;;;;;;10369446;28;20046;-56
2022/07/03 01:05:42;;;;;;;1.50;1.02;;;22.50;61.20;;;;;;10369388;28;20057;-55
2022/07/03 01:11:02;;;;;;;1.60;1.00;;;22.50;61.20;;;;;;10398018;28;20033;-56
2022/07/03 01:16:26;;;;;;;2.40;1.30;;;22.50;61.20;;;;;;10409488;28;20025;-55
2022/07/03 01:22:10;;;;;;;1.30;1.05;;;22.50;61.20;;;;;;10378869;28;20034;-56
2022/07/03 01:27:21;;;;;;;2.10;1.25;;;22.50;61.10;;;;;;10361150;28;20033;-56
2022/07/03 01:32:27;;;;;;;3.00;1.52;;;22.50;61.10;;;;;;10385565;28;20032;-56
2022/07/03 01:37:33;;;;;;;1.65;1.40;;;22.50;61.10;;;;;;10380752;28;20370;-56
2022/07/03 01:42:40;;;;;;;1.98;1.30;;;22.50;61.10;;;;;;10367652;28;20044;-56
2022/07/03 01:47:45;;;;;;;1.23;1.10;;;22.50;61.20;;;;;;10393683;28;20025;-56
2022/07/03 01:52:47;;;;;;;3.38;1.50;;;22.50;61.10;;;;;;10403848;28;20029;-55
2022/07/03 01:57:50;;;;;;;2.35;1.30;;;22.50;61.10;;;;;;10393858;28;20048;-56
2022/07/03 02:02:59;;;;;;;2.92;1.20;;;22.40;61.10;;;;;;10407487;28;20487;-56
2022/07/03 02:08:24;;;;;;;2.42;1.15;;;22.50;61.20;;;;;;10393674;28;20037;-56
2022/07/03 02:13:28;;;;;;;1.75;1.27;;;22.50;61.10;;;;;;10390658;28;20030;-57
2022/07/03 02:18:36;;;;;;;2.20;1.58;;;22.50;61.10;;;;;;10366014;28;20429;-56
2022/07/03 02:24:16;;;;;;;1.80;1.42;;;22.40;61.10;;;;;;10362911;28;20026;-56
2022/07/03 02:29:20;;;;;;;1.77;1.33;;;22.40;61.10;;;;;;10374249;28;20034;-56
2022/07/03 02:34:24;;;;;;;2.35;1.30;;;22.40;61.10;;;;;;10392005;28;20050;-54
2022/07/03 02:39:44;;;;;;;1.20;1.02;;;22.40;61.10;;;;;;10365437;28;20350;-56
2022/07/03 02:44:46;;;;;;;3.22;1.65;;;22.40;61.00;;;;;;10396557;28;20033;-55
2022/07/03 02:50:03;;;;;;;2.00;1.42;;;22.40;61.10;;;;;;10409828;28;20036;-55
2022/07/03 02:55:44;;;;;;;1.55;1.30;;;22.40;61.10;;;;;;10365420;28;20116;-55
2022/07/03 03:01:08;;;;;;;2.42;1.65;;;22.40;61.00;;;;;;10369699;28;20050;-55
2022/07/03 03:06:18;;;;;;;1.83;1.50;;;22.40;61.00;;;;;;10372455;28;20034;-55
2022/07/03 03:11:37;;;;;;;3.15;1.38;;;22.40;61.00;;;;;;10371354;28;20393;-56
2022/07/03 03:16:50;;;;;;;3.55;1.90;;;22.40;61.00;;;;;;10370476;28;20040;-56
2022/07/03 03:21:59;;;;;;;2.17;1.33;;;22.30;60.90;;;;;;10370080;28;20087;-53
2022/07/03 03:27:00;;;;;;;2.75;1.67;;;22.40;61.00;;;;;;10372967;28;20095;-56
2022/07/03 03:32:04;;;;;;;2.50;1.60;;;22.30;60.90;;;;;;10391593;28;21257;-56
2022/07/03 03:37:05;;;;;;;3.30;1.77;;;22.30;60.90;;;;;;10406025;28;20104;-56
2022/07/03 03:42:08;;;;;;;2.38;1.85;;;22.30;60.90;;;;;;10412491;28;20028;-55
2022/07/03 03:47:09;;;;;;;2.67;1.77;;;22.30;60.90;;;;;;10398842;28;20040;-54
2022/07/03 03:52:10;;;;;;;1.83;1.48;;;22.30;60.70;;;;;;10392881;28;20037;-56
2022/07/03 03:57:22;;;;;;;2.03;1.80;;;22.30;60.70;;;;;;10370238;28;20045;-54
2022/07/03 04:02:23;;;;;;;2.75;1.83;;;22.30;60.70;;;;;;10397158;28;20075;-55
2022/07/03 04:07:23;;;;;;;2.35;1.80;;;22.30;60.70;;;;;;10395326;28;20042;-55
2022/07/03 04:12:24;;;;;;;2.03;1.60;;;22.30;61.30;;;;;;10369673;28;20496;-55
2022/07/03 04:17:26;;;;;;;2.33;1.92;;;22.30;60.70;;;;;;10370971;28;20105;-56
2022/07/03 04:22:26;;;;;;;1.88;1.50;;;22.30;60.80;;;;;;10369202;28;20058;-56
2022/07/03 04:27:27;;;;;;;1.90;1.35;;;22.30;60.80;;;;;;10370729;28;20057;-54
2022/07/03 04:32:28;;;;;;;2.00;1.67;;;22.30;60.80;;;;;;10381895;28;20115;-53
2022/07/03 04:37:28;;;;;;;2.00;1.70;;;22.30;60.80;;;;;;10388134;28;20029;-55
2022/07/03 04:42:29;;;;;;;1.65;1.55;;;22.30;60.70;;;;;;10384752;28;20024;-56
2022/07/03 04:47:30;;;;;;;2.70;1.60;;;22.30;60.70;;;;;;10374975;28;20037;-56
2022/07/03 04:52:31;;;;;;;2.92;2.10;;;22.20;60.70;;;;;;10394619;28;20401;-53
2022/07/03 04:57:32;;;;;;;3.17;1.75;;;22.30;60.70;;;;;;10369458;28;20400;-56
2022/07/03 05:02:33;;;;;;;2.78;1.73;;;22.20;60.70;;;;;;10389295;28;20116;-56
2022/07/03 05:07:33;;;;;;;2.70;1.70;;;22.30;60.70;;;;;;10367738;28;20584;-55
2022/07/03 05:12:34;;;;;;;2.33;1.58;;;22.30;60.80;;;;;;10380299;28;20045;-55
2022/07/03 05:17:35;;;;;;;1.75;1.45;;;22.20;60.80;;;;;;10389628;28;20095;-55
2022/07/03 05:22:35;;;;;;;2.03;1.30;;;22.30;60.80;;;;;;10375269;28;20056;-55
2022/07/03 05:27:37;;;;;;;2.33;1.70;;;22.20;60.90;;;;;;10375543;28;20035;-55
2022/07/03 05:32:39;;;;;;;1.42;1.30;;;22.20;60.90;;;;;;10397294;28;20044;-54
2022/07/03 05:37:39;;;;;;;1.38;1.20;;;22.20;60.80;;;;;;10379570;28;20045;-54
2022/07/03 05:42:40;;;;;;;1.63;1.30;;;22.30;60.90;;;;;;10378643;28;20041;-55
2022/07/03 05:47:41;;;;;;;1.70;1.40;;;22.30;60.90;;;;;;10376167;28;20038;-56
2022/07/03 05:52:42;;;;;;;1.42;1.08;;;22.20;60.90;;;;;;10390721;28;20112;-54
2022/07/03 05:57:42;;;;;;;1.48;1.38;;;22.20;61.00;;;;;;10406758;28;20060;-55
2022/07/03 06:02:43;;;;;;;1.55;1.30;;;22.20;60.90;;;;;;10392499;28;20061;-54
2022/07/03 06:07:44;;;;;;;1.95;1.40;;;22.30;61.00;;;;;;10386589;28;20072;-54
2022/07/03 06:12:44;;;;;;;2.33;1.67;;;22.20;60.90;;;;;;10391318;28;20048;-55
2022/07/03 06:17:45;;;;;;;1.90;1.40;;;22.20;60.90;;;;;;10379101;28;20053;-54
2022/07/03 06:22:46;;;;;;;2.00;1.60;;;22.20;61.00;;;;;;10348541;28;20536;-53
2022/07/03 06:27:47;;;;;;;1.50;1.13;;;22.20;61.00;;;;;;10363497;28;20122;-55
2022/07/03 06:32:48;;;;;;;1.73;1.45;;;22.20;60.90;;;;;;10371674;28;20037;-54
2022/07/03 06:37:48;;;;;;;1.67;1.08;;;22.20;61.00;;;;;;10384070;28;20056;-56
2022/07/03 06:42:49;;;;;;;1.70;0.88;;;22.20;61.00;;;;;;10356584;28;20106;-54
2022/07/03 06:47:50;;;;;;;2.13;1.30;;;22.30;61.10;;;;;;10372918;28;20042;-55
2022/07/03 06:52:50;;;;;;;2.25;1.58;;;22.30;61.10;;;;;;10393481;28;20112;-56
2022/07/03 06:57:51;;;;;;;2.78;1.50;;;22.20;61.10;;;;;;10371321;28;20114;-54
2022/07/03 07:02:52;;;;;;;2.17;1.63;;;22.30;61.00;;;;;;10405255;28;20034;-54
2022/07/03 07:07:52;;;;;;;3.72;1.73;;;22.30;61.10;;;;;;10380831;28;20109;-56
2022/07/03 07:12:53;;;;;;;2.40;1.50;;;22.30;61.00;;;;;;10378886;28;20042;-55
2022/07/03 07:17:54;;;;;;;2.38;1.80;;;22.30;60.90;;;;;;10409282;28;20037;-55
2022/07/03 07:22:55;;;;;;;1.63;1.30;;;22.40;61.10;;;;;;10412368;28;20037;-55
2022/07/03 07:27:55;;;;;;;2.50;1.42;;;22.40;61.10;;;;;;10412415;28;20115;-54
2022/07/03 07:32:56;;;;;;;2.47;1.38;;;22.40;61.10;;;;;;10403703;28;20048;-54
2022/07/03 07:37:57;;;;;;;1.90;1.48;;;22.40;61.10;;;;;;10411495;28;20048;-54
2022/07/03 07:42:57;;;;;;;1.70;1.00;;;22.40;61.10;;;;;;10402367;28;20038;-55
2022/07/03 07:47:58;;;;;;;3.15;1.45;;;22.40;61.10;;;;;;10367659;28;20028;-55
2022/07/03 07:52:59;;;;;;;3.42;1.30;;;22.40;61.10;;;;;;10395535;28;20032;-54
2022/07/03 07:57:59;;;;;;;1.80;1.20;;;22.50;61.20;;;;;;10371174;28;20750;-55
2022/07/03 08:08:19;;;;;;;2.22;1.25;;;22.40;61.20;;;;;;10395329;28;20037;-54
2022/07/03 08:13:21;;;;;;;1.70;1.00;;;22.40;61.20;;;;;;10380249;28;20042;-58
2022/07/03 08:18:21;;;;;;;4.88;1.33;;;22.50;61.10;;;;;;10373645;28;20037;-54
2022/07/03 08:23:22;;;;;;;1.38;1.08;;;22.50;61.20;;;;;;10410000;28;20501;-55
2022/07/03 08:28:23;;;;;;;1.30;1.00;;;22.50;61.20;;;;;;10392933;28;20053;-54
2022/07/03 08:33:23;;;;;;;1.30;1.10;;;22.50;61.30;;;;;;10381848;28;20112;-55
2022/07/03 08:38:31;;;;;;;2.05;1.35;;;22.50;61.20;;;;;;10367525;28;20452;-56
2022/07/03 08:43:32;;;;;;;2.85;1.42;;;22.50;61.20;;;;;;10396734;28;20112;-53
2022/07/03 08:48:35;;;;;;;2.00;0.88;;;22.60;61.10;;;;;;10404931;28;20125;-54
2022/07/03 08:53:37;;;;;;;1.77;1.20;;;22.60;61.20;;;;;;10398094;28;20493;-55
2022/07/03 08:58:38;;;;;;;1.55;0.88;;;22.50;61.10;;;;;;10366356;28;20033;-55
2022/07/03 09:03:39;;;;;;;1.75;1.10;;;22.50;61.20;;;;;;10398236;28;20061;-55
2022/07/03 09:08:41;;;;;;;1.38;1.00;;;22.50;61.20;;;;;;10381609;28;20033;-53
2022/07/03 09:13:41;;;;;;;1.50;1.00;;;22.60;61.30;;;;;;10367061;28;20030;-54
2022/07/03 09:18:45;;;;;;;1.95;1.00;;;22.60;61.30;;;;;;10367227;28;20026;-53
2022/07/03 09:23:47;;;;;;;2.92;1.30;;;22.60;61.30;;;;;;10366116;28;20076;-54
2022/07/03 09:28:55;;;;;;;1.02;0.90;;;22.60;61.40;;;;;;10371408;28;20530;-54
2022/07/03 09:34:10;;;;;;;2.67;1.15;;;22.60;61.20;;;;;;10395391;28;20033;-54
2022/07/03 09:39:36;;;;;;;1.63;1.17;;;22.60;61.30;;;;;;10406588;28;20034;-54
2022/07/03 09:44:42;;;;;;;2.80;1.10;;;22.60;61.30;;;;;;10408402;28;20075;-54
2022/07/03 09:50:04;;;;;;;2.42;1.00;;;22.60;61.10;;;;;;10408758;28;20026;-55
2022/07/03 09:55:13;;;;;;;1.33;1.13;;;22.60;61.20;;;;;;10379466;28;20037;-56
2022/07/03 10:00:25;;;;;;;1.85;1.35;;;22.60;61.30;;;;;;10366747;28;20413;-55
2022/07/03 10:05:35;;;;;;;2.55;1.17;;;22.70;61.40;;;;;;10366855;28;20396;-54
2022/07/03 10:10:39;;;;;;;1.73;1.08;;;22.60;62.00;;;;;;10396480;28;20026;-54
2022/07/03 10:15:42;;;;;;;2.95;1.23;;;22.60;61.40;;;;;;10374189;28;20038;-55
2022/07/03 10:20:42;;;;;;;1.70;1.00;;;22.60;61.50;;;;;;10395625;28;20025;-53
2022/07/03 10:25:44;;;;;;;1.30;0.80;;;22.70;61.20;;;;;;10414457;28;20033;-55
2022/07/03 10:30:47;;;;;;;1.98;1.00;;;22.70;61.40;;;;;;10387364;28;20040;-56
2022/07/03 10:35:54;;;;;;;3.42;1.30;;;22.70;61.30;;;;;;10412490;28;20041;-54
2022/07/03 10:46:32;;;;;;;1.27;1.00;;;22.70;62.00;;;;;;10384934;28;20500;-54
2022/07/03 10:51:45;;;;;;;1.30;1.02;;;22.70;61.40;;;;;;10392230;28;20113;-55
2022/07/03 10:56:57;;;;;;;1.25;0.70;;;22.70;61.30;;;;;;10372526;28;20034;-53
2022/07/03 11:02:32;;;;;;;1.67;0.90;;;22.80;61.30;;;;;;10391704;28;20029;-55
2022/07/03 11:08:02;;;;;;;2.15;1.35;;;22.80;61.20;;;;;;10403699;28;20022;-55
2022/07/03 11:13:04;;;;;;;1.98;1.20;;;22.80;61.20;;;;;;10371866;28;20053;-51
2022/07/03 11:18:05;;;;;;;1.10;1.00;;;22.80;61.30;;;;;;10382514;28;20061;-54
2022/07/03 11:23:15;;;;;;;1.13;0.82;;;22.90;61.30;;;;;;10383242;28;20157;-54
2022/07/03 11:28:34;;;;;;;1.52;0.90;;;22.90;61.20;;;;;;10377367;28;20063;-54
2022/07/03 11:33:58;;;;;;;2.13;1.17;;;22.80;61.20;;;;;;10375476;28;20042;-55
2022/07/03 11:38:58;;;;;;;1.23;1.10;;;22.80;61.30;;;;;;10377748;28;20121;-56
2022/07/03 11:44:03;;;;;;;2.38;1.15;;;22.90;61.20;;;;;;10369601;28;20084;-54
2022/07/03 11:49:08;;;;;;;2.08;1.20;;;22.90;61.20;;;;;;10416887;28;20033;-55
2022/07/03 11:54:09;;;;;;;1.40;0.95;;;22.90;61.20;;;;;;10409324;28;20037;-52
2022/07/03 11:59:10;;;;;;;1.15;1.05;;;22.90;61.20;;;;;;10383163;28;20484;-54
2022/07/03 12:04:17;;;;;;;1.33;1.10;;;22.90;61.20;;;;;;10408812;28;20030;-56
2022/07/03 12:09:23;;;;;;;2.60;1.02;;;22.90;61.10;;;;;;10393731;28;20034;-54
2022/07/03 12:14:46;;;;;;;1.33;1.00;;;22.90;61.10;;;;;;10376509;28;20066;-55
2022/07/03 12:19:53;;;;;;;1.58;1.08;;;22.90;61.20;;;;;;10372457;28;20037;-54
2022/07/03 12:25:00;;;;;;;1.15;0.85;;;22.90;61.30;;;;;;10369039;28;20517;-52
2022/07/03 12:30:02;;;;;;;1.48;1.25;;;22.90;61.10;;;;;;10372111;28;20045;-52
2022/07/03 12:35:03;;;;;;;1.30;0.90;;;22.90;61.10;;;;;;10407451;28;20372;-53
2022/07/03 12:40:07;;;;;;;1.80;0.90;;;22.90;61.00;;;;;;10406293;28;20459;-55
2022/07/03 12:45:13;;;;;;;1.27;1.00;;;22.90;61.60;;;;;;10394291;28;20064;-56
2022/07/03 12:50:15;;;;;;;0.98;0.98;;;23.00;60.90;;;;;;10403405;28;20115;-55
2022/07/03 12:55:28;;;;;;;0.95;0.85;;;23.00;60.90;;;;;;10392312;28;20460;-55
2022/07/03 13:00:28;;;;;;;2.10;1.00;;;22.90;60.90;;;;;;10394236;28;20044;-55
2022/07/03 13:05:29;;;;;;;1.80;1.00;;;22.90;60.90;;;;;;10390681;28;20025;-52
2022/07/03 13:10:30;;;;;;;1.08;0.98;;;22.90;61.00;;;;;;10399076;28;20441;-55
2022/07/03 13:15:30;;;;;;;3.08;1.35;;;22.80;61.20;;;;;;10367629;28;20430;-54
2022/07/03 13:20:34;;;;;;;1.30;1.00;;;22.80;61.10;;;;;;10373610;28;20435;-55
2022/07/03 13:25:42;;;;;;;1.05;0.77;;;22.80;61.10;;;;;;10407748;28;20040;-54
2022/07/03 13:30:43;;;;;;;1.63;0.80;;;22.80;61.30;;;;;;10391561;28;20140;-55
2022/07/03 13:35:44;;;;;;;1.02;0.93;;;22.80;61.10;;;;;;10366259;28;20447;-51
2022/07/03 13:40:45;;;;;;;1.55;1.17;;;22.80;61.20;;;;;;10385401;28;20159;-53
2022/07/03 13:45:45;;;;;;;1.02;0.73;;;22.80;61.10;;;;;;10390724;28;20037;-55
2022/07/03 13:50:46;;;;;;;0.90;0.70;;;22.80;61.30;;;;;;10388063;28;20041;-55
2022/07/03 13:55:47;;;;;;;1.15;0.80;;;22.80;61.30;;;;;;10364712;28;20384;-55
2022/07/03 14:00:47;;;;;;;1.25;0.93;;;22.80;61.10;;;;;;10389624;28;20040;-55
2022/07/03 14:05:51;;;;;;;5.70;1.25;;;22.80;61.10;;;;;;10370343;28;20436;-55
2022/07/03 14:10:52;;;;;;;18.05;2.60;;;22.90;61.90;;;;;;10386707;28;20049;-55
2022/07/03 14:15:53;;;;;;;10.43;1.67;;;22.90;61.90;;;;;;10395395;28;20038;-53
2022/07/03 14:20:54;;;;;;;4.40;1.40;;;22.90;61.80;;;;;;10401176;28;20029;-54
2022/07/03 14:25:54;;;;;;;3.83;1.15;;;22.90;61.50;;;;;;10398024;28;20481;-52
2022/07/03 14:36:15;;;;;;;8.40;1.65;;;22.90;61.50;;;;;;10392811;28;20050;-54
2022/07/03 14:41:15;;;;;;;5.50;1.33;;;22.90;61.60;;;;;;10402307;28;20075;-53
2022/07/03 14:46:16;;;;;;;5.43;0.90;;;22.90;61.60;;;;;;10392863;28;20438;-55
2022/07/03 14:51:20;;;;;;;12.68;2.83;;;22.90;61.50;;;;;;10393863;28;20038;-55
2022/07/03 14:56:20;;;;;;;7.57;1.70;;;23.00;61.80;;;;;;10376054;28;20045;-52
2022/07/03 15:01:22;;;;;;;6.97;1.52;;;23.00;61.80;;;;;;10389381;28;20040;-55
2022/07/03 15:06:24;;;;;;;3.63;1.67;;;23.00;61.70;;;;;;10405416;28;20021;-51
2022/07/03 15:16:59;;;;;;;6.68;1.70;;;22.90;61.20;;;;;;10380900;28;20057;-54
2022/07/03 15:22:03;;;;;;;7.50;1.38;;;22.90;60.40;;;;;;10407863;28;20124;-54
2022/07/03 15:27:05;;;;;;;5.88;1.67;;;22.90;60.00;;;;;;10383303;28;20034;-55
2022/07/03 15:32:07;;;;;;;5.10;1.67;;;22.90;59.90;;;;;;10393885;28;20033;-55
2022/07/03 15:37:42;;;;;;;5.88;2.72;;;22.90;59.50;;;;;;10381707;28;20534;-53
2022/07/03 15:43:14;;;;;;;4.65;2.30;;;22.90;59.20;;;;;;10404627;28;20029;-55
2022/07/03 15:48:45;;;;;;;5.93;2.10;;;22.90;58.60;;;;;;10384297;28;20034;-54
2022/07/03 15:53:50;;;;;;;7.38;1.92;;;22.90;58.10;;;;;;10383888;28;20509;-54
2022/07/03 15:58:55;;;;;;;6.13;2.10;;;22.90;57.90;;;;;;10386830;28;20052;-56
2022/07/03 16:04:07;;;;;;;10.10;2.50;;;22.90;57.60;;;;;;10392434;28;20485;-56
2022/07/03 16:09:09;;;;;;;268.85;232.40;;;22.90;57.50;;;;;;10408420;28;20067;-55
2022/07/03 16:14:12;;;;;;;23.10;11.15;;;22.90;60.00;;;;;;10379477;28;20034;-55
2022/07/03 16:19:12;;;;;;;29.05;19.63;;;22.90;57.60;;;;;;10382757;28;20092;-51
2022/07/03 16:24:14;;;;;;;28.33;14.57;;;22.90;57.70;;;;;;10391575;28;20033;-55
2022/07/03 16:29:15;;;;;;;20.25;13.05;;;23.00;58.80;;;;;;10384629;28;20038;-54
2022/07/03 16:34:44;;;;;;;13.15;10.57;;;23.00;59.80;;;;;;10407966;28;20531;-53
2022/07/03 16:39:50;;;;;;;13.13;7.75;;;23.10;58.80;;;;;;10397883;28;20076;-52
2022/07/03 16:44:52;;;;;;;22.35;6.45;;;23.00;57.60;;;;;;10358427;28;20022;-54
2022/07/03 16:49:53;;;;;;;8.02;5.35;;;23.00;57.80;;;;;;10396501;28;20041;-53
2022/07/03 16:54:54;;;;;;;7.93;4.10;;;22.90;57.50;;;;;;10368503;28;20060;-53
2022/07/03 16:59:56;;;;;;;5.97;3.53;;;22.90;57.50;;;;;;10380736;28;20038;-54
2022/07/03 17:04:58;;;;;;;8.57;3.28;;;22.90;57.10;;;;;;10387114;28;20036;-53
2022/07/03 17:09:58;;;;;;;7.07;2.60;;;22.90;56.90;;;;;;10385825;28;20038;-54
2022/07/03 17:14:59;;;;;;;6.93;2.13;;;22.90;57.00;;;;;;10371488;28;20381;-55
2022/07/03 17:20:07;;;;;;;10.98;2.15;;;22.90;56.40;;;;;;10374485;28;20060;-55
2022/07/03 17:25:24;;;;;;;10.18;2.15;;;22.90;56.10;;;;;;10377609;28;20038;-53
2022/07/03 17:30:56;;;;;;;4.35;1.48;;;22.90;56.50;;;;;;10385702;28;20066;-52
2022/07/03 17:36:21;;;;;;;3.90;1.50;;;22.90;56.20;;;;;;10373802;28;20148;-54
2022/07/03 17:41:29;;;;;;;6.40;1.35;;;22.80;55.80;;;;;;10367896;28;20458;-54
2022/07/03 17:46:35;;;;;;;;;;;22.90;55.40;;;;;;10381218;28;20081;-54
2022/07/03 17:51:36;;;;;;;3.75;1.60;;;22.90;55.40;;;;;;10406709;28;19913;-53
2022/07/03 17:56:38;;;;;;;2.72;1.48;;;22.90;55.30;;;;;;10384260;28;20034;-54
2022/07/03 18:01:40;;;;;;;2.22;0.93;;;22.90;55.10;;;;;;10385025;28;20038;-55
2022/07/03 18:06:41;;;;;;;3.75;1.08;;;22.90;55.00;;;;;;10379920;28;20032;-54
2022/07/03 18:11:58;;;;;;;3.80;1.30;;;22.80;55.50;;;;;;10378980;28;20076;-55
2022/07/03 18:17:00;;;;;;;2.45;0.85;;;22.80;55.50;;;;;;10371427;28;20127;-53
2022/07/03 18:22:03;;;;;;;2.58;1.20;;;22.80;55.00;;;;;;10375433;28;20111;-56
2022/07/03 18:27:13;;;;;;;1.48;1.00;;;22.80;55.10;;;;;;10401926;28;20414;-54
2022/07/03 18:32:17;;;;;;;2.40;0.90;;;22.80;55.60;;;;;;10393145;28;20049;-57
2022/07/03 18:37:20;;;;;;;2.17;1.20;;;22.80;55.80;;;;;;10412764;28;20223;-54
2022/07/03 18:42:20;;;;;;;2.55;1.08;;;22.80;56.00;;;;;;10412245;28;20044;-55
2022/07/03 18:47:21;;;;;;;2.25;0.88;;;22.80;56.20;;;;;;10374391;28;20036;-54
2022/07/03 18:52:50;;;;;;;1.58;0.80;;;22.80;56.30;;;;;;10414026;28;20424;-55
2022/07/03 18:58:11;;;;;;;0.83;0.80;;;22.80;56.40;;;;;;10404543;28;20104;-55
2022/07/03 19:03:15;;;;;;;1.88;0.70;;;22.80;56.50;;;;;;10391520;28;20369;-54
2022/07/03 19:08:43;;;;;;;2.80;1.33;;;22.80;56.50;;;;;;10401391;28;20080;-53
2022/07/03 19:14:07;;;;;;;2.08;0.85;;;22.80;56.50;;;;;;10403644;28;20046;-56
2022/07/03 19:19:11;;;;;;;1.73;0.90;;;22.80;57.00;;;;;;10405707;28;20112;-55
2022/07/03 19:24:12;;;;;;;3.55;2.05;;;22.80;56.90;;;;;;10372890;28;20565;-55
2022/07/03 19:29:14;;;;;;;3.00;1.90;;;22.80;58.10;;;;;;10394206;28;20522;-54
2022/07/03 19:34:15;;;;;;;2.10;1.90;;;22.90;58.40;;;;;;10390324;28;20038;-54
2022/07/03 19:39:16;;;;;;;2.47;2.28;;;22.80;58.90;;;;;;10387336;28;20087;-55
2022/07/03 19:44:16;;;;;;;4.68;3.50;;;22.80;59.10;;;;;;10395058;28;20072;-55
2022/07/03 19:49:17;;;;;;;8.00;2.58;;;22.90;59.50;;;;;;10386057;28;20434;-54
2022/07/03 19:54:18;;;;;;;6.57;2.08;;;22.90;60.20;;;;;;10387501;28;21325;-55
2022/07/03 19:59:18;;;;;;;5.00;2.10;;;23.00;60.20;;;;;;10388969;28;20033;-57
2022/07/03 20:04:19;;;;;;;3.10;2.20;;;22.90;59.30;;;;;;10381214;28;20461;-56
2022/07/03 20:09:22;;;;;;;3.20;2.15;;;22.90;59.10;;;;;;10386011;28;20048;-55
2022/07/03 20:14:24;;;;;;;2.58;1.75;;;22.90;59.10;;;;;;10368243;28;20030;-56
2022/07/03 20:19:25;;;;;;;3.33;1.98;;;22.90;59.10;;;;;;10403065;28;20500;-56
2022/07/03 20:24:31;;;;;;;2.30;1.60;;;22.90;59.10;;;;;;10408607;28;20022;-53
2022/07/03 20:29:41;;;;;;;3.35;1.50;;;22.90;59.10;;;;;;10382364;28;20025;-56
2022/07/03 20:34:42;;;;;;;1.70;1.35;;;22.90;59.10;;;;;;10381935;28;20048;-54
2022/07/03 20:39:43;;;;;;;1.90;1.05;;;22.80;59.00;;;;;;10407703;28;20052;-56
2022/07/03 20:44:44;;;;;;;1.27;1.13;;;22.80;59.00;;;;;;10408723;28;20108;-55
2022/07/03 20:49:45;;;;;;;1.75;1.30;;;22.80;59.00;;;;;;10415362;28;20435;-55
2022/07/03 20:54:45;;;;;;;1.30;1.10;;;22.80;59.00;;;;;;10368303;28;20042;-57
2022/07/03 20:59:46;;;;;;;3.17;0.88;;;22.80;59.00;;;;;;10368546;28;20091;-54
2022/07/03 21:04:47;;;;;;;4.25;1.20;;;22.80;59.00;;;;;;10384947;28;20358;-56
2022/07/03 21:09:48;;;;;;;2.45;1.02;;;22.80;59.00;;;;;;10394727;28;20048;-54
2022/07/03 21:14:49;;;;;;;2.05;0.98;;;22.80;59.00;;;;;;10408303;28;20040;-54
2022/07/03 21:19:49;;;;;;;1.35;1.00;;;22.80;59.00;;;;;;10381408;28;20033;-56
2022/07/03 21:24:50;;;;;;;1.27;0.90;;;22.80;59.10;;;;;;10408091;28;20042;-55
2022/07/03 21:29:51;;;;;;;1.70;1.50;;;22.80;59.10;;;;;;10383463;28;20049;-55
2022/07/03 21:34:51;;;;;;;1.95;0.90;;;22.80;59.10;;;;;;10407421;28;20046;-56
2022/07/03 21:39:52;;;;;;;1.63;1.13;;;22.80;59.00;;;;;;10408005;28;20079;-55
2022/07/03 21:44:53;;;;;;;2.03;1.13;;;22.80;59.00;;;;;;10394947;28;20034;-55
2022/07/03 21:49:54;;;;;;;1.98;1.15;;;22.70;59.00;;;;;;10409755;28;20032;-54
2022/07/03 21:54:54;;;;;;;1.30;1.00;;;22.80;59.00;;;;;;10407306;28;20116;-54
2022/07/03 21:59:55;;;;;;;2.45;1.08;;;22.80;59.00;;;;;;10386779;28;20489;-55
2022/07/03 22:04:56;;;;;;;2.05;1.00;;;22.80;59.10;;;;;;10369775;28;20484;-54
2022/07/03 22:09:56;;;;;;;2.05;1.00;;;22.70;59.00;;;;;;10375564;28;20544;-56
2022/07/03 22:14:59;;;;;;;3.92;1.13;;;22.80;59.00;;;;;;10385078;28;20117;-54
2022/07/03 22:20:01;;;;;;;2.33;0.73;;;22.70;58.90;;;;;;10386480;28;20037;-55
2022/07/03 22:25:03;;;;;;;1.50;0.80;;;22.70;59.00;;;;;;10401500;28;20109;-56
2022/07/03 22:30:08;;;;;;;1.98;0.93;;;22.70;59.00;;;;;;10378296;28;20033;-56
2022/07/03 22:35:13;;;;;;;2.13;0.80;;;22.70;59.00;;;;;;10414124;28;20103;-55
2022/07/03 22:40:15;;;;;;;1.63;0.80;;;22.70;59.00;;;;;;10394985;28;20038;-56
2022/07/03 22:45:16;;;;;;;1.65;1.08;;;22.70;59.00;;;;;;10386512;28;20550;-56
2022/07/03 22:50:17;;;;;;;1.58;1.00;;;22.70;59.00;;;;;;10399912;28;20041;-56
2022/07/03 22:55:17;;;;;;;0.93;0.68;;;22.70;59.00;;;;;;10400595;28;20865;-55
2022/07/03 23:00:18;;;;;;;1.77;0.82;;;22.70;59.00;;;;;;10414218;28;20037;-55
2022/07/03 23:05:19;;;;;;;1.30;0.70;;;22.70;59.00;;;;;;10387028;28;20105;-55
2022/07/03 23:10:19;;;;;;;1.25;0.98;;;22.70;59.00;;;;;;10412625;28;20053;-56
2022/07/03 23:15:20;;;;;;;2.90;1.15;;;22.70;59.00;;;;;;10372430;28;20160;-55
2022/07/03 23:20:21;;;;;;;1.25;0.70;;;22.70;59.00;;;;;;10373252;28;20022;-55
2022/07/03 23:25:22;;;;;;;1.52;0.93;;;22.70;59.00;;;;;;10373059;28;20040;-55
2022/07/03 23:30:22;;;;;;;2.25;0.88;;;22.70;59.00;;;;;;10378093;28;20112;-55
2022/07/03 23:35:23;;;;;;;2.47;0.85;;;22.70;58.90;;;;;;10412023;28;20056;-56
2022/07/03 23:40:24;;;;;;;1.77;0.93;;;22.70;58.90;;;;;;10412553;28;20038;-55
2022/07/03 23:45:25;;;;;;;0.85;0.68;;;22.70;58.90;;;;;;10411814;28;20075;-56
2022/07/03 23:50:35;;;;;;;1.95;1.13;;;22.70;58.90;;;;;;10402850;28;20037;-55
2022/07/03 23:55:36;;;;;;;1.92;0.80;;;22.70;59.00;;;;;;10382584;28;20050;-55
